sensor_id;sensor_type;location;lat;lon;timestamp;temperature;humidity
39503;DHT22;26970;49.900;10.774;2024-02-21T00:01:22;5.90;99.90
39503;DHT22;26970;49.900;10.774;2024-02-21T00:03:47;6.00;99.90
39503;DHT22;26970;49.900;10.774;2024-02-21T00:06:13;6.00;99.90
39503;DHT22;26970;49.900;10.774;2024-02-21T00:08:39;6.00;99.90
39503;DHT22;26970;49.900;10.774;2024-02-21T00:11:04;6.00;99.90
39503;DHT22;26970;49.900;10.774;2024-02-21T00:13:30;6.10;99.90
39503;DHT22;26970;49.900;10.774;2024-02-21T00:15:56;6.10;99.90
39503;DHT22;26970;49.900;10.774;2024-02-21T00:18:21;6.10;99.90
39503;DHT22;26970;49.900;10.774;2024-02-21T00:20:47;6.10;99.90
39503;DHT22;26970;49.900;10.774;2024-02-21T00:23:12;6.00;99.90
39503;DHT22;26970;49.900;10.774;2024-02-21T00:25:38;6.10;99.90
39503;DHT22;26970;49.900;10.774;2024-02-21T00:28:04;6.10;99.90
39503;DHT22;26970;49.900;10.774;2024-02-21T00:30:31;6.10;99.90
39503;DHT22;26970;49.900;10.774;2024-02-21T00:32:57;6.10;99.90
39503;DHT22;26970;49.900;10.774;2024-02-21T00:35:22;6.10;99.90
39503;DHT22;26970;49.900;10.774;2024-02-21T00:37:48;6.10;99.90
39503;DHT22;26970;49.900;10.774;2024-02-21T00:40:13;6.10;99.90
39503;DHT22;26970;49.900;10.774;2024-02-21T00:42:45;6.10;99.90
39503;DHT22;26970;49.900;10.774;2024-02-21T00:45:11;6.10;99.90
39503;DHT22;26970;49.900;10.774;2024-02-21T00:47:37;6.10;99.90
39503;DHT22;26970;49.900;10.774;2024-02-21T00:50:02;6.10;99.90
39503;DHT22;26970;49.900;10.774;2024-02-21T00:52:28;6.20;99.90
39503;DHT22;26970;49.900;10.774;2024-02-21T00:54:53;6.20;99.90
39503;DHT22;26970;49.900;10.774;2024-02-21T00:57:19;6.20;99.90
39503;DHT22;26970;49.900;10.774;2024-02-21T00:59:44;6.30;99.90
39503;DHT22;26970;49.900;10.774;2024-02-21T01:02:10;6.30;99.90
39503;DHT22;26970;49.900;10.774;2024-02-21T01:04:36;6.30;99.90
39503;DHT22;26970;49.900;10.774;2024-02-21T01:07:01;6.30;99.90
39503;DHT22;26970;49.900;10.774;2024-02-21T01:09:27;6.30;99.90
39503;DHT22;26970;49.900;10.774;2024-02-21T01:11:53;6.30;99.90
39503;DHT22;26970;49.900;10.774;2024-02-21T01:14:18;6.40;99.90
39503;DHT22;26970;49.900;10.774;2024-02-21T01:16:44;6.40;99.90
39503;DHT22;26970;49.900;10.774;2024-02-21T01:19:09;6.40;99.90
39503;DHT22;26970;49.900;10.774;2024-02-21T01:21:35;6.40;99.90
39503;DHT22;26970;49.900;10.774;2024-02-21T01:24:00;6.40;99.90
39503;DHT22;26970;49.900;10.774;2024-02-21T01:26:26;6.40;99.90
39503;DHT22;26970;49.900;10.774;2024-02-21T01:28:51;6.40;99.90
39503;DHT22;26970;49.900;10.774;2024-02-21T01:31:17;6.40;99.90
39503;DHT22;26970;49.900;10.774;2024-02-21T01:33:43;6.40;99.90
39503;DHT22;26970;49.900;10.774;2024-02-21T01:36:08;6.40;99.90
39503;DHT22;26970;49.900;10.774;2024-02-21T01:38:34;6.40;99.90
39503;DHT22;26970;49.900;10.774;2024-02-21T01:41:00;6.40;99.90
39503;DHT22;26970;49.900;10.774;2024-02-21T01:43:25;6.40;99.90
39503;DHT22;26970;49.900;10.774;2024-02-21T01:45:55;6.40;99.90
39503;DHT22;26970;49.900;10.774;2024-02-21T01:48:24;6.40;99.90
39503;DHT22;26970;49.900;10.774;2024-02-21T01:50:51;6.40;99.90
39503;DHT22;26970;49.900;10.774;2024-02-21T01:53:20;6.40;99.90
39503;DHT22;26970;49.900;10.774;2024-02-21T01:55:46;6.40;99.90
39503;DHT22;26970;49.900;10.774;2024-02-21T01:58:16;6.30;99.90
39503;DHT22;26970;49.900;10.774;2024-02-21T02:00:43;6.30;99.90
39503;DHT22;26970;49.900;10.774;2024-02-21T02:03:12;6.40;99.90
39503;DHT22;26970;49.900;10.774;2024-02-21T02:05:48;6.40;99.90
39503;DHT22;26970;49.900;10.774;2024-02-21T02:08:15;6.30;99.90
39503;DHT22;26970;49.900;10.774;2024-02-21T02:10:41;6.30;99.90
39503;DHT22;26970;49.900;10.774;2024-02-21T02:13:07;6.30;99.90
39503;DHT22;26970;49.900;10.774;2024-02-21T02:15:58;6.30;99.90
39503;DHT22;26970;49.900;10.774;2024-02-21T02:18:24;6.30;99.90
39503;DHT22;26970;49.900;10.774;2024-02-21T02:20:49;6.30;99.90
39503;DHT22;26970;49.900;10.774;2024-02-21T02:25:47;6.30;99.90
39503;DHT22;26970;49.900;10.774;2024-02-21T02:28:17;6.20;99.90
39503;DHT22;26970;49.900;10.774;2024-02-21T02:30:43;6.20;99.90
39503;DHT22;26970;49.900;10.774;2024-02-21T02:33:08;6.20;99.90
39503;DHT22;26970;49.900;10.774;2024-02-21T02:35:34;6.20;99.90
39503;DHT22;26970;49.900;10.774;2024-02-21T02:38:03;6.20;99.90
39503;DHT22;26970;49.900;10.774;2024-02-21T02:40:30;6.20;99.90
39503;DHT22;26970;49.900;10.774;2024-02-21T02:42:55;6.20;99.90
39503;DHT22;26970;49.900;10.774;2024-02-21T02:45:22;6.20;99.90
39503;DHT22;26970;49.900;10.774;2024-02-21T02:47:54;6.20;99.90
39503;DHT22;26970;49.900;10.774;2024-02-21T02:50:20;6.30;99.90
39503;DHT22;26970;49.900;10.774;2024-02-21T02:52:46;6.30;99.90
39503;DHT22;26970;49.900;10.774;2024-02-21T02:55:11;6.30;99.90
39503;DHT22;26970;49.900;10.774;2024-02-21T02:57:37;6.30;99.90
39503;DHT22;26970;49.900;10.774;2024-02-21T03:00:03;6.30;99.90
39503;DHT22;26970;49.900;10.774;2024-02-21T03:02:29;6.30;99.90
39503;DHT22;26970;49.900;10.774;2024-02-21T03:04:56;6.40;99.90
39503;DHT22;26970;49.900;10.774;2024-02-21T03:07:24;6.30;99.90
39503;DHT22;26970;49.900;10.774;2024-02-21T03:09:50;6.30;99.90
39503;DHT22;26970;49.900;10.774;2024-02-21T03:12:15;6.30;99.90
39503;DHT22;26970;49.900;10.774;2024-02-21T03:14:49;6.30;99.90
39503;DHT22;26970;49.900;10.774;2024-02-21T03:17:15;6.30;99.90
39503;DHT22;26970;49.900;10.774;2024-02-21T03:19:40;6.20;99.90
39503;DHT22;26970;49.900;10.774;2024-02-21T03:22:06;6.20;99.90
39503;DHT22;26970;49.900;10.774;2024-02-21T03:24:31;6.20;99.90
39503;DHT22;26970;49.900;10.774;2024-02-21T03:26:57;6.20;99.90
39503;DHT22;26970;49.900;10.774;2024-02-21T03:29:24;6.20;99.90
39503;DHT22;26970;49.900;10.774;2024-02-21T03:31:50;6.20;99.90
39503;DHT22;26970;49.900;10.774;2024-02-21T03:34:16;6.10;99.90
39503;DHT22;26970;49.900;10.774;2024-02-21T03:36:41;6.10;99.90
39503;DHT22;26970;49.900;10.774;2024-02-21T03:39:07;6.10;99.90
39503;DHT22;26970;49.900;10.774;2024-02-21T03:41:34;6.10;99.90
39503;DHT22;26970;49.900;10.774;2024-02-21T03:44:00;6.10;99.90
39503;DHT22;26970;49.900;10.774;2024-02-21T03:46:26;6.10;99.90
39503;DHT22;26970;49.900;10.774;2024-02-21T03:48:52;6.10;99.90
39503;DHT22;26970;49.900;10.774;2024-02-21T03:51:17;6.00;99.90
39503;DHT22;26970;49.900;10.774;2024-02-21T03:53:43;6.00;99.90
39503;DHT22;26970;49.900;10.774;2024-02-21T03:56:08;5.90;99.90
39503;DHT22;26970;49.900;10.774;2024-02-21T03:58:34;5.90;99.90
39503;DHT22;26970;49.900;10.774;2024-02-21T04:01:00;5.90;99.90
39503;DHT22;26970;49.900;10.774;2024-02-21T04:03:27;5.90;99.90
39503;DHT22;26970;49.900;10.774;2024-02-21T04:05:52;5.90;99.90
39503;DHT22;26970;49.900;10.774;2024-02-21T04:08:18;5.80;99.90
39503;DHT22;26970;49.900;10.774;2024-02-21T04:10:43;5.80;99.90
39503;DHT22;26970;49.900;10.774;2024-02-21T04:13:09;5.80;99.90
39503;DHT22;26970;49.900;10.774;2024-02-21T04:15:35;5.80;99.90
39503;DHT22;26970;49.900;10.774;2024-02-21T04:18:01;5.80;99.90
39503;DHT22;26970;49.900;10.774;2024-02-21T04:20:26;5.80;99.90
39503;DHT22;26970;49.900;10.774;2024-02-21T04:22:52;5.80;99.90
39503;DHT22;26970;49.900;10.774;2024-02-21T04:25:17;5.70;99.90
39503;DHT22;26970;49.900;10.774;2024-02-21T04:27:43;5.70;99.90
39503;DHT22;26970;49.900;10.774;2024-02-21T04:30:09;5.70;99.90
39503;DHT22;26970;49.900;10.774;2024-02-21T04:32:35;5.60;99.90
39503;DHT22;26970;49.900;10.774;2024-02-21T04:35:01;5.60;99.90
39503;DHT22;26970;49.900;10.774;2024-02-21T04:37:26;5.60;99.90
39503;DHT22;26970;49.900;10.774;2024-02-21T04:39:52;5.60;99.90
39503;DHT22;26970;49.900;10.774;2024-02-21T04:42:17;5.60;99.90
39503;DHT22;26970;49.900;10.774;2024-02-21T04:44:43;5.50;99.90
39503;DHT22;26970;49.900;10.774;2024-02-21T04:47:09;5.50;99.90
39503;DHT22;26970;49.900;10.774;2024-02-21T04:49:34;5.50;99.90
39503;DHT22;26970;49.900;10.774;2024-02-21T04:52:00;5.50;99.90
39503;DHT22;26970;49.900;10.774;2024-02-21T04:54:26;5.50;99.90
39503;DHT22;26970;49.900;10.774;2024-02-21T04:56:52;5.50;99.90
39503;DHT22;26970;49.900;10.774;2024-02-21T04:59:18;5.50;99.90
39503;DHT22;26970;49.900;10.774;2024-02-21T05:01:43;5.50;99.90
39503;DHT22;26970;49.900;10.774;2024-02-21T05:04:09;5.40;99.90
39503;DHT22;26970;49.900;10.774;2024-02-21T05:06:41;5.40;99.90
39503;DHT22;26970;49.900;10.774;2024-02-21T05:09:07;5.30;99.90
39503;DHT22;26970;49.900;10.774;2024-02-21T05:11:36;5.30;99.90
39503;DHT22;26970;49.900;10.774;2024-02-21T05:14:03;5.30;99.90
39503;DHT22;26970;49.900;10.774;2024-02-21T05:16:29;5.20;99.90
39503;DHT22;26970;49.900;10.774;2024-02-21T05:18:54;5.20;99.90
39503;DHT22;26970;49.900;10.774;2024-02-21T05:21:22;5.20;99.90
39503;DHT22;26970;49.900;10.774;2024-02-21T05:23:49;5.10;99.90
39503;DHT22;26970;49.900;10.774;2024-02-21T05:26:24;5.10;99.90
39503;DHT22;26970;49.900;10.774;2024-02-21T05:28:50;5.10;99.90
39503;DHT22;26970;49.900;10.774;2024-02-21T05:31:17;5.10;99.90
39503;DHT22;26970;49.900;10.774;2024-02-21T05:33:43;5.10;99.90
39503;DHT22;26970;49.900;10.774;2024-02-21T05:36:09;5.00;99.90
39503;DHT22;26970;49.900;10.774;2024-02-21T05:38:35;5.00;99.90
39503;DHT22;26970;49.900;10.774;2024-02-21T05:41:01;4.90;99.90
39503;DHT22;26970;49.900;10.774;2024-02-21T05:43:26;4.90;99.90
39503;DHT22;26970;49.900;10.774;2024-02-21T05:45:52;4.80;99.90
39503;DHT22;26970;49.900;10.774;2024-02-21T05:48:18;4.80;99.90
39503;DHT22;26970;49.900;10.774;2024-02-21T05:50:43;4.90;99.90
39503;DHT22;26970;49.900;10.774;2024-02-21T05:53:09;4.80;99.90
39503;DHT22;26970;49.900;10.774;2024-02-21T05:55:35;4.80;99.90
39503;DHT22;26970;49.900;10.774;2024-02-21T05:58:01;4.90;99.90
39503;DHT22;26970;49.900;10.774;2024-02-21T06:00:27;4.90;99.90
39503;DHT22;26970;49.900;10.774;2024-02-21T06:02:53;5.00;99.90
39503;DHT22;26970;49.900;10.774;2024-02-21T06:05:19;5.10;99.90
39503;DHT22;26970;49.900;10.774;2024-02-21T06:07:44;5.10;99.90
39503;DHT22;26970;49.900;10.774;2024-02-21T06:10:10;5.10;99.90
39503;DHT22;26970;49.900;10.774;2024-02-21T06:12:35;5.20;99.90
39503;DHT22;26970;49.900;10.774;2024-02-21T06:15:01;5.20;99.90
39503;DHT22;26970;49.900;10.774;2024-02-21T06:17:26;5.20;99.90
39503;DHT22;26970;49.900;10.774;2024-02-21T06:19:52;5.20;99.90
39503;DHT22;26970;49.900;10.774;2024-02-21T06:22:17;5.30;99.90
39503;DHT22;26970;49.900;10.774;2024-02-21T06:24:43;5.30;99.90
39503;DHT22;26970;49.900;10.774;2024-02-21T06:27:09;5.30;99.90
39503;DHT22;26970;49.900;10.774;2024-02-21T06:29:36;5.30;99.90
39503;DHT22;26970;49.900;10.774;2024-02-21T06:32:02;5.30;99.90
39503;DHT22;26970;49.900;10.774;2024-02-21T06:34:27;5.30;99.90
39503;DHT22;26970;49.900;10.774;2024-02-21T06:36:53;5.30;99.90
39503;DHT22;26970;49.900;10.774;2024-02-21T06:39:19;5.30;99.90
39503;DHT22;26970;49.900;10.774;2024-02-21T06:41:44;5.40;99.90
39503;DHT22;26970;49.900;10.774;2024-02-21T06:44:10;5.40;99.90
39503;DHT22;26970;49.900;10.774;2024-02-21T06:46:36;5.50;99.90
39503;DHT22;26970;49.900;10.774;2024-02-21T06:49:02;5.50;99.90
39503;DHT22;26970;49.900;10.774;2024-02-21T06:51:29;5.50;99.90
39503;DHT22;26970;49.900;10.774;2024-02-21T06:53:55;5.60;99.90
39503;DHT22;26970;49.900;10.774;2024-02-21T06:56:22;5.60;99.90
39503;DHT22;26970;49.900;10.774;2024-02-21T06:58:52;5.60;99.90
39503;DHT22;26970;49.900;10.774;2024-02-21T07:01:17;5.60;99.90
39503;DHT22;26970;49.900;10.774;2024-02-21T07:03:43;5.50;99.90
39503;DHT22;26970;49.900;10.774;2024-02-21T07:06:08;5.50;99.90
39503;DHT22;26970;49.900;10.774;2024-02-21T07:08:34;5.60;99.90
39503;DHT22;26970;49.900;10.774;2024-02-21T07:10:59;5.60;99.90
39503;DHT22;26970;49.900;10.774;2024-02-21T07:13:25;5.70;99.90
39503;DHT22;26970;49.900;10.774;2024-02-21T07:15:50;5.70;99.90
39503;DHT22;26970;49.900;10.774;2024-02-21T07:18:16;5.80;99.90
39503;DHT22;26970;49.900;10.774;2024-02-21T07:20:41;5.80;99.90
39503;DHT22;26970;49.900;10.774;2024-02-21T07:23:10;5.90;99.90
39503;DHT22;26970;49.900;10.774;2024-02-21T07:25:35;5.90;99.90
39503;DHT22;26970;49.900;10.774;2024-02-21T07:28:01;6.00;99.90
39503;DHT22;26970;49.900;10.774;2024-02-21T07:30:26;5.90;99.90
39503;DHT22;26970;49.900;10.774;2024-02-21T07:32:52;6.00;99.90
39503;DHT22;26970;49.900;10.774;2024-02-21T07:35:18;6.00;99.90
39503;DHT22;26970;49.900;10.774;2024-02-21T07:37:43;6.10;99.90
39503;DHT22;26970;49.900;10.774;2024-02-21T07:40:13;6.20;99.90
39503;DHT22;26970;49.900;10.774;2024-02-21T07:42:39;6.30;99.90
39503;DHT22;26970;49.900;10.774;2024-02-21T07:45:05;6.30;99.90
39503;DHT22;26970;49.900;10.774;2024-02-21T07:47:31;6.20;99.90
39503;DHT22;26970;49.900;10.774;2024-02-21T07:49:56;6.30;99.90
39503;DHT22;26970;49.900;10.774;2024-02-21T07:52:22;6.30;99.90
39503;DHT22;26970;49.900;10.774;2024-02-21T07:54:47;6.30;99.90
39503;DHT22;26970;49.900;10.774;2024-02-21T07:57:13;6.30;99.90
39503;DHT22;26970;49.900;10.774;2024-02-21T07:59:38;6.30;99.90
39503;DHT22;26970;49.900;10.774;2024-02-21T08:02:04;6.30;99.90
39503;DHT22;26970;49.900;10.774;2024-02-21T08:04:32;6.40;99.90
39503;DHT22;26970;49.900;10.774;2024-02-21T08:06:57;6.30;99.90
39503;DHT22;26970;49.900;10.774;2024-02-21T08:09:26;6.40;99.90
39503;DHT22;26970;49.900;10.774;2024-02-21T08:11:53;6.40;99.90
39503;DHT22;26970;49.900;10.774;2024-02-21T08:14:19;6.40;99.90
39503;DHT22;26970;49.900;10.774;2024-02-21T08:16:44;6.50;99.90
39503;DHT22;26970;49.900;10.774;2024-02-21T08:19:10;6.50;99.90
39503;DHT22;26970;49.900;10.774;2024-02-21T08:21:36;6.60;99.90
39503;DHT22;26970;49.900;10.774;2024-02-21T08:24:01;6.60;99.90
39503;DHT22;26970;49.900;10.774;2024-02-21T08:26:27;6.60;99.90
39503;DHT22;26970;49.900;10.774;2024-02-21T08:28:55;6.60;99.90
39503;DHT22;26970;49.900;10.774;2024-02-21T08:31:24;6.60;99.90
39503;DHT22;26970;49.900;10.774;2024-02-21T08:33:50;6.70;99.90
39503;DHT22;26970;49.900;10.774;2024-02-21T08:36:19;6.70;99.90
39503;DHT22;26970;49.900;10.774;2024-02-21T08:38:47;6.60;99.90
39503;DHT22;26970;49.900;10.774;2024-02-21T08:41:13;6.70;99.90
39503;DHT22;26970;49.900;10.774;2024-02-21T08:43:39;6.70;99.90
39503;DHT22;26970;49.900;10.774;2024-02-21T08:46:05;6.70;99.90
39503;DHT22;26970;49.900;10.774;2024-02-21T08:48:30;6.70;99.90
39503;DHT22;26970;49.900;10.774;2024-02-21T08:50:56;6.70;99.90
39503;DHT22;26970;49.900;10.774;2024-02-21T08:53:21;6.70;99.90
39503;DHT22;26970;49.900;10.774;2024-02-21T08:55:47;6.80;99.90
39503;DHT22;26970;49.900;10.774;2024-02-21T08:58:12;6.90;99.90
39503;DHT22;26970;49.900;10.774;2024-02-21T09:00:40;6.90;99.90
39503;DHT22;26970;49.900;10.774;2024-02-21T09:03:05;7.00;99.90
39503;DHT22;26970;49.900;10.774;2024-02-21T09:05:31;7.00;99.90
39503;DHT22;26970;49.900;10.774;2024-02-21T09:07:56;7.00;99.90
39503;DHT22;26970;49.900;10.774;2024-02-21T09:10:22;7.00;99.90
39503;DHT22;26970;49.900;10.774;2024-02-21T09:12:47;7.10;99.90
39503;DHT22;26970;49.900;10.774;2024-02-21T09:15:13;7.10;99.90
39503;DHT22;26970;49.900;10.774;2024-02-21T09:17:38;7.10;99.90
39503;DHT22;26970;49.900;10.774;2024-02-21T09:20:05;7.20;99.90
39503;DHT22;26970;49.900;10.774;2024-02-21T09:22:32;7.30;99.90
39503;DHT22;26970;49.900;10.774;2024-02-21T09:25:00;7.40;99.90
39503;DHT22;26970;49.900;10.774;2024-02-21T09:27:26;7.50;99.90
39503;DHT22;26970;49.900;10.774;2024-02-21T09:29:51;7.50;99.90
39503;DHT22;26970;49.900;10.774;2024-02-21T09:32:18;7.60;99.90
39503;DHT22;26970;49.900;10.774;2024-02-21T09:34:44;7.70;99.90
39503;DHT22;26970;49.900;10.774;2024-02-21T09:37:10;7.80;99.90
39503;DHT22;26970;49.900;10.774;2024-02-21T09:39:36;7.80;99.90
39503;DHT22;26970;49.900;10.774;2024-02-21T09:42:06;7.90;99.90
39503;DHT22;26970;49.900;10.774;2024-02-21T09:44:39;7.90;99.90
39503;DHT22;26970;49.900;10.774;2024-02-21T09:47:17;7.80;99.90
39503;DHT22;26970;49.900;10.774;2024-02-21T09:49:44;7.90;99.90
39503;DHT22;26970;49.900;10.774;2024-02-21T09:52:12;8.00;99.90
39503;DHT22;26970;49.900;10.774;2024-02-21T09:54:39;8.00;99.90
39503;DHT22;26970;49.900;10.774;2024-02-21T09:57:08;8.10;99.90
39503;DHT22;26970;49.900;10.774;2024-02-21T09:59:33;8.20;99.90
39503;DHT22;26970;49.900;10.774;2024-02-21T10:01:59;8.30;99.90
39503;DHT22;26970;49.900;10.774;2024-02-21T10:04:26;8.40;99.90
39503;DHT22;26970;49.900;10.774;2024-02-21T10:06:52;8.50;99.90
39503;DHT22;26970;49.900;10.774;2024-02-21T10:09:26;8.40;99.90
39503;DHT22;26970;49.900;10.774;2024-02-21T10:11:55;8.70;99.90
39503;DHT22;26970;49.900;10.774;2024-02-21T10:14:21;8.80;99.90
39503;DHT22;26970;49.900;10.774;2024-02-21T10:16:48;8.90;99.90
39503;DHT22;26970;49.900;10.774;2024-02-21T10:19:20;8.90;99.90
39503;DHT22;26970;49.900;10.774;2024-02-21T10:22:06;8.80;99.90
39503;DHT22;26970;49.900;10.774;2024-02-21T10:24:33;8.70;99.90
39503;DHT22;26970;49.900;10.774;2024-02-21T10:27:03;8.80;99.90
39503;DHT22;26970;49.900;10.774;2024-02-21T10:29:33;8.90;99.90
39503;DHT22;26970;49.900;10.774;2024-02-21T10:32:19;9.10;99.90
39503;DHT22;26970;49.900;10.774;2024-02-21T10:34:45;9.10;99.90
39503;DHT22;26970;49.900;10.774;2024-02-21T10:37:11;9.10;99.90
39503;DHT22;26970;49.900;10.774;2024-02-21T10:39:38;9.20;99.90
39503;DHT22;26970;49.900;10.774;2024-02-21T10:42:04;9.20;99.90
39503;DHT22;26970;49.900;10.774;2024-02-21T10:44:32;9.20;99.90
39503;DHT22;26970;49.900;10.774;2024-02-21T10:46:58;9.20;99.90
39503;DHT22;26970;49.900;10.774;2024-02-21T10:49:28;9.20;99.90
39503;DHT22;26970;49.900;10.774;2024-02-21T10:54:55;9.10;99.90
39503;DHT22;26970;49.900;10.774;2024-02-21T10:57:22;9.10;99.90
39503;DHT22;26970;49.900;10.774;2024-02-21T10:59:49;9.20;99.90
39503;DHT22;26970;49.900;10.774;2024-02-21T11:02:15;9.30;99.90
39503;DHT22;26970;49.900;10.774;2024-02-21T11:04:42;9.40;99.90
39503;DHT22;26970;49.900;10.774;2024-02-21T11:07:08;9.50;99.90
39503;DHT22;26970;49.900;10.774;2024-02-21T11:09:34;9.60;99.90
39503;DHT22;26970;49.900;10.774;2024-02-21T11:12:04;9.60;99.90
39503;DHT22;26970;49.900;10.774;2024-02-21T11:14:30;9.70;99.90
39503;DHT22;26970;49.900;10.774;2024-02-21T11:17:01;9.60;99.90
39503;DHT22;26970;49.900;10.774;2024-02-21T11:19:28;9.50;99.90
39503;DHT22;26970;49.900;10.774;2024-02-21T11:21:56;9.60;99.90
39503;DHT22;26970;49.900;10.774;2024-02-21T11:24:32;9.70;99.90
39503;DHT22;26970;49.900;10.774;2024-02-21T11:29:40;9.70;99.90
39503;DHT22;26970;49.900;10.774;2024-02-21T11:32:09;9.70;99.90
39503;DHT22;26970;49.900;10.774;2024-02-21T11:34:35;9.80;99.90
39503;DHT22;26970;49.900;10.774;2024-02-21T11:37:01;9.70;99.90
39503;DHT22;26970;49.900;10.774;2024-02-21T11:39:26;9.70;99.90
39503;DHT22;26970;49.900;10.774;2024-02-21T11:42:06;9.70;99.90
39503;DHT22;26970;49.900;10.774;2024-02-21T11:44:33;9.80;99.90
39503;DHT22;26970;49.900;10.774;2024-02-21T11:46:59;9.80;99.90
39503;DHT22;26970;49.900;10.774;2024-02-21T11:49:26;9.90;99.90
39503;DHT22;26970;49.900;10.774;2024-02-21T11:52:02;9.90;99.90
39503;DHT22;26970;49.900;10.774;2024-02-21T11:54:30;10.00;99.90
39503;DHT22;26970;49.900;10.774;2024-02-21T11:56:56;10.10;99.90
39503;DHT22;26970;49.900;10.774;2024-02-21T11:59:21;10.00;99.90
39503;DHT22;26970;49.900;10.774;2024-02-21T12:01:48;10.00;99.90
39503;DHT22;26970;49.900;10.774;2024-02-21T12:04:14;10.00;99.90
39503;DHT22;26970;49.900;10.774;2024-02-21T12:06:43;10.10;99.90
39503;DHT22;26970;49.900;10.774;2024-02-21T12:09:08;10.10;99.90
39503;DHT22;26970;49.900;10.774;2024-02-21T12:11:34;10.10;99.90
39503;DHT22;26970;49.900;10.774;2024-02-21T12:14:03;10.10;99.90
39503;DHT22;26970;49.900;10.774;2024-02-21T12:16:31;10.10;99.90
39503;DHT22;26970;49.900;10.774;2024-02-21T12:18:57;10.20;99.90
39503;DHT22;26970;49.900;10.774;2024-02-21T12:21:26;10.30;99.90
39503;DHT22;26970;49.900;10.774;2024-02-21T12:23:54;10.10;99.90
39503;DHT22;26970;49.900;10.774;2024-02-21T12:26:20;10.10;99.90
39503;DHT22;26970;49.900;10.774;2024-02-21T12:28:46;10.20;99.90
39503;DHT22;26970;49.900;10.774;2024-02-21T12:31:12;10.30;99.90
39503;DHT22;26970;49.900;10.774;2024-02-21T12:33:38;10.40;99.90
39503;DHT22;26970;49.900;10.774;2024-02-21T12:36:03;10.30;99.90
39503;DHT22;26970;49.900;10.774;2024-02-21T12:38:29;10.30;99.90
39503;DHT22;26970;49.900;10.774;2024-02-21T12:40:55;10.30;99.90
39503;DHT22;26970;49.900;10.774;2024-02-21T12:43:22;10.30;99.90
39503;DHT22;26970;49.900;10.774;2024-02-21T12:45:48;10.30;99.90
39503;DHT22;26970;49.900;10.774;2024-02-21T12:48:14;10.20;99.90
39503;DHT22;26970;49.900;10.774;2024-02-21T12:50:49;10.20;99.90
39503;DHT22;26970;49.900;10.774;2024-02-21T12:53:19;10.30;99.90
39503;DHT22;26970;49.900;10.774;2024-02-21T12:55:50;10.30;99.90
39503;DHT22;26970;49.900;10.774;2024-02-21T12:58:16;10.40;99.90
39503;DHT22;26970;49.900;10.774;2024-02-21T13:00:42;10.50;99.90
39503;DHT22;26970;49.900;10.774;2024-02-21T13:03:08;10.40;99.90
39503;DHT22;26970;49.900;10.774;2024-02-21T13:05:35;10.40;99.90
39503;DHT22;26970;49.900;10.774;2024-02-21T13:08:01;10.40;99.90
39503;DHT22;26970;49.900;10.774;2024-02-21T13:10:26;10.30;99.90
39503;DHT22;26970;49.900;10.774;2024-02-21T13:12:52;10.40;99.90
39503;DHT22;26970;49.900;10.774;2024-02-21T13:15:18;10.50;99.90
39503;DHT22;26970;49.900;10.774;2024-02-21T13:17:44;10.50;99.90
39503;DHT22;26970;49.900;10.774;2024-02-21T13:20:10;10.50;99.90
39503;DHT22;26970;49.900;10.774;2024-02-21T13:22:36;10.50;99.90
39503;DHT22;26970;49.900;10.774;2024-02-21T13:25:03;10.60;99.90
39503;DHT22;26970;49.900;10.774;2024-02-21T13:27:28;10.60;99.90
39503;DHT22;26970;49.900;10.774;2024-02-21T13:29:54;10.50;99.90
39503;DHT22;26970;49.900;10.774;2024-02-21T13:32:20;10.50;99.90
39503;DHT22;26970;49.900;10.774;2024-02-21T13:34:45;10.50;99.90
39503;DHT22;26970;49.900;10.774;2024-02-21T13:37:11;10.60;99.90
39503;DHT22;26970;49.900;10.774;2024-02-21T13:39:37;10.70;99.90
39503;DHT22;26970;49.900;10.774;2024-02-21T13:42:02;10.70;99.90
39503;DHT22;26970;49.900;10.774;2024-02-21T13:44:31;10.70;99.90
39503;DHT22;26970;49.900;10.774;2024-02-21T13:46:56;10.70;99.90
39503;DHT22;26970;49.900;10.774;2024-02-21T13:49:22;10.70;99.90
39503;DHT22;26970;49.900;10.774;2024-02-21T13:51:47;10.80;99.90
39503;DHT22;26970;49.900;10.774;2024-02-21T13:54:13;10.80;99.90
39503;DHT22;26970;49.900;10.774;2024-02-21T13:56:42;10.70;99.90
39503;DHT22;26970;49.900;10.774;2024-02-21T13:59:08;10.60;99.90
39503;DHT22;26970;49.900;10.774;2024-02-21T14:01:34;10.70;99.90
39503;DHT22;26970;49.900;10.774;2024-02-21T14:04:01;10.70;99.90
39503;DHT22;26970;49.900;10.774;2024-02-21T14:06:27;10.70;99.90
39503;DHT22;26970;49.900;10.774;2024-02-21T14:08:52;10.60;99.90
39503;DHT22;26970;49.900;10.774;2024-02-21T14:11:18;10.60;99.90
39503;DHT22;26970;49.900;10.774;2024-02-21T14:13:43;10.50;99.90
39503;DHT22;26970;49.900;10.774;2024-02-21T14:16:10;10.50;99.90
39503;DHT22;26970;49.900;10.774;2024-02-21T14:18:39;10.50;99.90
39503;DHT22;26970;49.900;10.774;2024-02-21T14:21:06;10.50;99.90
39503;DHT22;26970;49.900;10.774;2024-02-21T14:23:31;10.50;99.90
39503;DHT22;26970;49.900;10.774;2024-02-21T14:25:59;10.60;99.90
39503;DHT22;26970;49.900;10.774;2024-02-21T14:28:24;10.60;99.90
39503;DHT22;26970;49.900;10.774;2024-02-21T14:30:50;10.50;99.90
39503;DHT22;26970;49.900;10.774;2024-02-21T14:33:19;10.40;99.90
39503;DHT22;26970;49.900;10.774;2024-02-21T14:35:44;10.40;99.90
39503;DHT22;26970;49.900;10.774;2024-02-21T14:38:10;10.40;99.90
39503;DHT22;26970;49.900;10.774;2024-02-21T14:40:35;10.40;99.90
39503;DHT22;26970;49.900;10.774;2024-02-21T14:43:01;10.30;99.90
39503;DHT22;26970;49.900;10.774;2024-02-21T14:45:26;10.30;99.90
39503;DHT22;26970;49.900;10.774;2024-02-21T14:47:52;10.30;99.90
39503;DHT22;26970;49.900;10.774;2024-02-21T14:50:17;10.30;99.90
39503;DHT22;26970;49.900;10.774;2024-02-21T14:52:44;10.30;99.90
39503;DHT22;26970;49.900;10.774;2024-02-21T14:55:09;10.30;99.90
39503;DHT22;26970;49.900;10.774;2024-02-21T14:57:35;10.30;99.90
39503;DHT22;26970;49.900;10.774;2024-02-21T15:00:02;10.20;99.90
39503;DHT22;26970;49.900;10.774;2024-02-21T15:02:28;10.10;99.90
39503;DHT22;26970;49.900;10.774;2024-02-21T15:04:53;10.10;99.90
39503;DHT22;26970;49.900;10.774;2024-02-21T15:07:20;10.00;99.90
39503;DHT22;26970;49.900;10.774;2024-02-21T15:09:49;10.00;99.90
39503;DHT22;26970;49.900;10.774;2024-02-21T15:12:15;10.00;99.90
39503;DHT22;26970;49.900;10.774;2024-02-21T15:14:41;10.00;99.90
39503;DHT22;26970;49.900;10.774;2024-02-21T15:17:06;10.00;99.90
39503;DHT22;26970;49.900;10.774;2024-02-21T15:19:32;10.00;99.90
39503;DHT22;26970;49.900;10.774;2024-02-21T15:21:58;10.00;99.90
39503;DHT22;26970;49.900;10.774;2024-02-21T15:24:24;10.00;99.90
39503;DHT22;26970;49.900;10.774;2024-02-21T15:26:50;10.00;99.90
39503;DHT22;26970;49.900;10.774;2024-02-21T15:29:15;9.90;99.90
39503;DHT22;26970;49.900;10.774;2024-02-21T15:31:41;9.90;99.90